Time;durP1;ratioP1;P1;durP2;ratioP2;P2;SDS_P1;SDS_P2;PMS_P1;PMS_P2;Temp;Humidity;BMP_temperature;BMP_pressure;BME280_temperature;BME280_humidity;BME280_pressure;Samples;Min_cycle;Max_cycle;Signal;HPM_P1;HPM_P2
2023/03/10 00:02:08;;;;;;;8.57;1.60;;;9.80;82.40;;;;;;5000901;28;20057;-67
2023/03/10 00:04:43;;;;;;;5.90;1.20;;;9.90;82.30;;;;;;5002450;28;20054;-67
2023/03/10 00:07:17;;;;;;;3.17;0.60;;;9.90;82.30;;;;;;5001433;28;20044;-68
2023/03/10 00:09:50;;;;;;;6.82;1.30;;;9.90;82.10;;;;;;4998960;28;20049;-68
2023/03/10 00:12:26;;;;;;;6.72;1.38;;;9.90;82.10;;;;;;5000760;28;20054;-68
2023/03/10 00:15:00;;;;;;;4.75;1.10;;;9.90;81.80;;;;;;5003264;28;20042;-68
2023/03/10 00:17:33;;;;;;;3.95;1.02;;;9.90;81.80;;;;;;5002063;28;20488;-69
2023/03/10 00:20:12;;;;;;;3.22;0.90;;;9.90;81.60;;;;;;5004668;28;20085;-68
2023/03/10 00:22:45;;;;;;;5.88;1.17;;;10.00;81.60;;;;;;5001655;28;20625;-68
2023/03/10 00:25:14;;;;;;;4.28;1.13;;;10.00;81.40;;;;;;5001560;28;20463;-68
2023/03/10 00:27:51;;;;;;;4.70;0.90;;;10.00;81.40;;;;;;5001833;28;20401;-68
2023/03/10 00:30:24;;;;;;;4.60;1.27;;;10.00;81.20;;;;;;5001542;28;20050;-68
2023/03/10 00:32:57;;;;;;;4.43;0.88;;;10.10;81.30;;;;;;5003025;28;20075;-68
2023/03/10 00:35:32;;;;;;;4.70;1.05;;;10.10;81.40;;;;;;5003145;28;20100;-68
2023/03/10 00:38:05;;;;;;;3.17;1.05;;;10.00;81.50;;;;;;5004737;28;20536;-67
2023/03/10 00:40:38;;;;;;;4.95;1.10;;;10.10;81.70;;;;;;5004807;28;20100;-69
2023/03/10 00:43:18;;;;;;;3.95;0.98;;;10.10;82.10;;;;;;5005577;28;20109;-68
2023/03/10 00:45:52;;;;;;;4.15;0.88;;;10.10;82.10;;;;;;5021978;28;20593;-68
2023/03/10 00:48:26;;;;;;;3.67;0.88;;;10.10;82.50;;;;;;5006316;28;20416;-67
2023/03/10 00:51:01;;;;;;;3.20;0.85;;;10.00;82.90;;;;;;5005804;28;20046;-66
2023/03/10 00:53:36;;;;;;;2.95;0.77;;;10.00;83.40;;;;;;5003545;28;20061;-67
2023/03/10 00:56:12;;;;;;;2.33;0.80;;;10.00;83.60;;;;;;5007444;28;21047;-67
2023/03/10 00:58:47;;;;;;;2.75;0.65;;;10.00;83.70;;;;;;5003806;28;20042;-68
2023/03/10 01:01:22;;;;;;;3.50;1.10;;;10.00;83.70;;;;;;5005156;28;20053;-67
2023/03/10 01:03:59;;;;;;;3.05;0.80;;;10.00;83.70;;;;;;5004388;28;20072;-67
2023/03/10 01:06:35;;;;;;;1.60;0.55;;;10.00;83.90;;;;;;5005886;28;20053;-67
2023/03/10 01:09:09;;;;;;;3.67;0.80;;;10.00;84.20;;;;;;5004177;28;20394;-68
2023/03/10 01:11:36;;;;;;;1.05;0.50;;;10.00;84.50;;;;;;5021815;28;20056;-67
2023/03/10 01:14:17;;;;;;;2.72;0.80;;;9.90;84.60;;;;;;5023130;28;20131;-67
2023/03/10 01:16:51;;;;;;;2.85;0.57;;;9.90;84.80;;;;;;5005640;28;20050;-69
2023/03/10 01:19:24;;;;;;;2.05;0.70;;;9.90;85.00;;;;;;5006185;28;20053;-67
2023/03/10 01:21:58;;;;;;;1.88;0.65;;;9.90;85.00;;;;;;5005530;28;20042;-68
2023/03/10 01:24:31;;;;;;;2.03;0.50;;;9.90;85.20;;;;;;5021065;28;20540;-68
2023/03/10 01:27:04;;;;;;;1.77;0.57;;;9.90;85.30;;;;;;5005343;28;20050;-67
2023/03/10 01:29:37;;;;;;;2.63;0.60;;;9.90;85.40;;;;;;5020033;28;20058;-67
2023/03/10 01:32:05;;;;;;;2.50;0.60;;;9.90;85.60;;;;;;5004939;28;20568;-68
2023/03/10 01:34:39;;;;;;;3.08;0.70;;;9.90;85.60;;;;;;5002951;28;20041;-69
2023/03/10 01:37:13;;;;;;;1.98;0.60;;;9.90;85.70;;;;;;5022041;28;20053;-68
2023/03/10 01:39:47;;;;;;;2.38;0.70;;;9.90;85.90;;;;;;5005352;28;20105;-67
2023/03/10 01:42:20;;;;;;;2.45;0.60;;;9.90;85.90;;;;;;5020472;28;20129;-67
2023/03/10 01:45:08;;;;;;;2.33;0.63;;;9.80;86.20;;;;;;5006971;28;20117;-67
2023/03/10 01:47:42;;;;;;;3.25;0.70;;;9.80;86.40;;;;;;5007408;28;20057;-68
2023/03/10 01:50:19;;;;;;;3.00;0.70;;;9.80;86.60;;;;;;5006263;28;20600;-67
2023/03/10 01:52:57;;;;;;;2.03;0.60;;;9.80;86.70;;;;;;5002460;28;20469;-67
2023/03/10 01:55:33;;;;;;;2.45;0.70;;;9.80;87.00;;;;;;5006453;28;20100;-67
2023/03/10 01:58:08;;;;;;;3.83;0.77;;;9.80;87.10;;;;;;5021020;28;20924;-67
2023/03/10 02:00:41;;;;;;;2.58;0.80;;;9.80;87.20;;;;;;5020949;28;20049;-66
2023/03/10 02:03:19;;;;;;;5.07;0.82;;;9.80;87.20;;;;;;5003839;28;20157;-67
2023/03/10 02:05:55;;;;;;;4.10;0.70;;;9.70;87.20;;;;;;5020826;28;20050;-67
2023/03/10 02:08:34;;;;;;;2.35;0.70;;;9.70;87.10;;;;;;5015950;28;20042;-68
2023/03/10 02:11:08;;;;;;;2.40;0.60;;;9.70;87.40;;;;;;5019793;28;20034;-67
2023/03/10 02:13:43;;;;;;;1.60;0.60;;;9.80;87.30;;;;;;5002597;28;20053;-66
2023/03/10 02:16:17;;;;;;;1.75;0.50;;;9.70;87.40;;;;;;5002204;28;20045;-65
2023/03/10 02:18:51;;;;;;;1.67;0.45;;;9.70;87.70;;;;;;5021919;28;20049;-68
2023/03/10 02:21:31;;;;;;;1.20;0.40;;;9.70;87.80;;;;;;5006183;28;20045;-67
2023/03/10 02:24:15;;;;;;;2.58;0.50;;;9.70;87.70;;;;;;5005246;28;20056;-66
2023/03/10 02:26:52;;;;;;;3.05;0.70;;;9.70;88.00;;;;;;5002859;28;20065;-66
2023/03/10 02:29:34;;;;;;;2.28;0.52;;;9.70;88.00;;;;;;5005544;28;20133;-65
2023/03/10 02:32:08;;;;;;;1.58;0.47;;;9.70;88.00;;;;;;5003973;28;20079;-66
2023/03/10 02:34:41;;;;;;;2.42;0.50;;;9.70;88.30;;;;;;5016025;28;20045;-67
2023/03/10 02:37:20;;;;;;;1.70;0.50;;;9.70;88.40;;;;;;5004811;28;20578;-66
2023/03/10 02:39:54;;;;;;;1.75;0.40;;;9.70;88.50;;;;;;5020920;28;20049;-66
2023/03/10 02:42:39;;;;;;;1.88;0.63;;;9.70;88.30;;;;;;5004508;28;20060;-67
2023/03/10 02:45:14;;;;;;;2.05;0.57;;;9.70;88.40;;;;;;5005700;28;20052;-68
2023/03/10 02:47:54;;;;;;;3.05;0.60;;;9.60;88.60;;;;;;5021130;28;20452;-66
2023/03/10 02:50:33;;;;;;;2.40;0.50;;;9.70;88.50;;;;;;5003643;28;20052;-66
2023/03/10 02:53:11;;;;;;;2.72;0.52;;;9.60;88.40;;;;;;5004982;28;20104;-66
2023/03/10 02:55:44;;;;;;;2.22;0.40;;;9.60;88.20;;;;;;5021188;28;20041;-65
2023/03/10 02:58:19;;;;;;;0.65;0.40;;;9.70;88.10;;;;;;5004119;28;20049;-64
2023/03/10 03:00:49;;;;;;;0.95;0.30;;;9.70;88.00;;;;;;5006027;28;20061;-60
2023/03/10 03:03:23;;;;;;;3.35;0.68;;;9.70;88.00;;;;;;5004545;28;20057;-61
2023/03/10 03:05:57;;;;;;;4.28;0.52;;;9.70;88.20;;;;;;5004017;28;20485;-61
2023/03/10 03:08:32;;;;;;;1.05;0.30;;;9.60;88.20;;;;;;5019347;28;20709;-61
2023/03/10 03:11:08;;;;;;;1.65;0.60;;;9.60;88.20;;;;;;5020791;28;20042;-60
2023/03/10 03:13:42;;;;;;;1.20;0.40;;;9.60;88.20;;;;;;5004815;28;20440;-63
2023/03/10 03:16:16;;;;;;;2.38;1.10;;;9.60;88.20;;;;;;5015945;28;20115;-62
2023/03/10 03:18:54;;;;;;;1.08;0.55;;;9.70;88.00;;;;;;5001863;28;20558;-61
2023/03/10 03:21:27;;;;;;;2.20;0.50;;;9.60;87.90;;;;;;5020634;28;20515;-61
2023/03/10 03:24:00;;;;;;;1.13;0.40;;;9.70;87.80;;;;;;5005624;28;20404;-61
2023/03/10 03:26:27;;;;;;;1.85;0.52;;;9.70;87.80;;;;;;5003915;28;20049;-60
2023/03/10 03:29:10;;;;;;;1.75;0.55;;;9.60;87.80;;;;;;5020679;28;20045;-62
2023/03/10 03:31:45;;;;;;;0.52;0.30;;;9.70;87.90;;;;;;5001727;28;20149;-62
2023/03/10 03:34:22;;;;;;;1.10;0.30;;;9.70;87.80;;;;;;5004009;28;20053;-61
2023/03/10 03:36:59;;;;;;;0.98;0.40;;;9.70;87.90;;;;;;5003719;28;20108;-61
2023/03/10 03:39:37;;;;;;;1.45;0.38;;;9.60;88.00;;;;;;5004176;28;20042;-62
2023/03/10 03:42:10;;;;;;;1.13;0.30;;;9.60;88.00;;;;;;5005624;28;20050;-60
2023/03/10 03:44:56;;;;;;;1.48;0.20;;;9.70;87.80;;;;;;5001992;28;20049;-62
2023/03/10 03:47:31;;;;;;;;;;;9.70;87.70;;;;;;5005991;28;20117;-61
2023/03/10 03:50:06;;;;;;;1.58;0.43;;;9.70;87.70;;;;;;5004321;28;19921;-62
2023/03/10 03:52:41;;;;;;;1.70;0.40;;;9.70;87.80;;;;;;5004462;28;20108;-60
2023/03/10 03:55:18;;;;;;;2.30;0.30;;;9.70;87.90;;;;;;5003724;28;20099;-59
2023/03/10 03:57:53;;;;;;;1.40;0.30;;;9.70;88.20;;;;;;5004252;28;20061;-62
2023/03/10 04:00:26;;;;;;;1.20;0.40;;;9.60;88.20;;;;;;5003751;28;20082;-61
2023/03/10 04:03:05;;;;;;;2.75;0.47;;;9.60;88.70;;;;;;5004365;28;20050;-60
2023/03/10 04:05:39;;;;;;;2.55;0.40;;;9.60;88.90;;;;;;5014616;28;20056;-61
2023/03/10 04:08:14;;;;;;;2.00;0.40;;;9.60;89.00;;;;;;5002718;28;20042;-62
2023/03/10 04:10:51;;;;;;;1.50;0.50;;;9.60;89.40;;;;;;4997976;28;20057;-61
2023/03/10 04:13:26;;;;;;;0.57;0.25;;;9.60;89.60;;;;;;5022338;28;20165;-62
2023/03/10 04:16:07;;;;;;;1.75;0.40;;;9.50;89.60;;;;;;5007568;28;20062;-60
2023/03/10 04:18:44;;;;;;;0.93;0.43;;;9.60;89.20;;;;;;5022181;28;20481;-60
2023/03/10 04:21:18;;;;;;;1.50;0.50;;;9.60;89.50;;;;;;5022466;28;20053;-61
2023/03/10 04:23:54;;;;;;;1.38;0.50;;;9.50;89.60;;;;;;5008710;28;20042;-60
2023/03/10 04:26:31;;;;;;;1.50;0.40;;;9.50;89.40;;;;;;5006237;28;20619;-58
2023/03/10 04:29:05;;;;;;;1.77;0.55;;;9.50;89.60;;;;;;5007227;28;20123;-59
2023/03/10 04:31:41;;;;;;;0.95;0.30;;;9.40;89.80;;;;;;5022290;28;20046;-58
2023/03/10 04:34:15;;;;;;;1.10;0.40;;;9.50;89.70;;;;;;5008829;28;20049;-58
2023/03/10 04:36:49;;;;;;;1.45;0.50;;;9.40;89.70;;;;;;5007928;28;20076;-59
2023/03/10 04:39:22;;;;;;;0.95;0.40;;;9.50;89.50;;;;;;5022364;28;20128;-58
2023/03/10 04:41:55;;;;;;;0.95;0.35;;;9.50;89.30;;;;;;5022336;28;20149;-59
2023/03/10 04:44:36;;;;;;;2.33;0.47;;;9.50;89.40;;;;;;5005577;28;20572;-59
2023/03/10 04:47:09;;;;;;;1.42;0.60;;;9.50;89.50;;;;;;5021651;28;20066;-58
2023/03/10 04:49:43;;;;;;;2.10;0.40;;;9.50;89.50;;;;;;5005125;28;20503;-59
2023/03/10 04:52:17;;;;;;;1.60;0.40;;;9.50;89.40;;;;;;5021306;28;20041;-59
2023/03/10 04:54:50;;;;;;;0.95;0.32;;;9.50;89.40;;;;;;5021561;28;20100;-59
2023/03/10 04:57:23;;;;;;;1.92;0.50;;;9.50;89.10;;;;;;5020351;28;20108;-62
2023/03/10 04:59:57;;;;;;;0.85;0.50;;;9.50;89.10;;;;;;5020651;28;20123;-61
2023/03/10 05:02:32;;;;;;;1.27;0.35;;;9.50;89.00;;;;;;5006478;28;20045;-61
2023/03/10 05:05:07;;;;;;;1.75;0.28;;;9.50;88.90;;;;;;5008175;28;20148;-62
2023/03/10 05:07:44;;;;;;;1.83;0.47;;;9.50;88.90;;;;;;5020940;28;20129;-62
2023/03/10 05:10:19;;;;;;;1.27;0.35;;;9.50;89.00;;;;;;5003174;28;20140;-60
2023/03/10 05:12:53;;;;;;;0.68;0.40;;;9.50;88.90;;;;;;5005960;28;20520;-62
2023/03/10 05:15:26;;;;;;;1.13;0.40;;;9.50;88.80;;;;;;5005541;28;20046;-62
2023/03/10 05:17:59;;;;;;;1.45;0.40;;;9.40;88.60;;;;;;5007923;28;20137;-63
2023/03/10 05:20:34;;;;;;;2.63;0.43;;;9.50;88.50;;;;;;5005171;28;20046;-61
2023/03/10 05:23:07;;;;;;;2.28;0.40;;;9.50;88.30;;;;;;5021696;28;20401;-62
2023/03/10 05:25:41;;;;;;;1.88;0.30;;;9.50;88.10;;;;;;5003939;28;20050;-65
2023/03/10 05:28:15;;;;;;;3.38;0.50;;;9.50;88.00;;;;;;5021426;28;20077;-65
2023/03/10 05:30:49;;;;;;;1.52;0.40;;;9.50;87.80;;;;;;5002717;28;20053;-64
2023/03/10 05:33:22;;;;;;;1.13;0.40;;;9.50;87.60;;;;;;5000950;28;20046;-66
2023/03/10 05:35:57;;;;;;;3.00;0.80;;;9.60;87.50;;;;;;5005663;28;20046;-65
2023/03/10 05:38:32;;;;;;;1.88;0.98;;;9.50;87.40;;;;;;5002336;28;20054;-65
2023/03/10 05:41:09;;;;;;;1.20;0.50;;;9.50;87.30;;;;;;5003743;28;20050;-64
2023/03/10 05:43:51;;;;;;;1.13;0.50;;;9.50;87.30;;;;;;5004865;28;20042;-64
2023/03/10 05:46:25;;;;;;;3.75;0.70;;;9.50;87.20;;;;;;5021377;28;20459;-66
2023/03/10 05:48:59;;;;;;;3.63;0.88;;;9.60;87.20;;;;;;5020444;28;20046;-67
2023/03/10 05:51:35;;;;;;;4.55;0.60;;;9.50;87.10;;;;;;5002717;28;20050;-63
2023/03/10 05:54:08;;;;;;;4.63;0.90;;;9.50;87.10;;;;;;5021511;28;20050;-61
2023/03/10 05:56:42;;;;;;;2.85;0.50;;;9.50;87.10;;;;;;5002392;28;20053;-59
2023/03/10 05:59:15;;;;;;;5.30;0.85;;;9.50;87.10;;;;;;5004210;28;21333;-58
2023/03/10 06:01:49;;;;;;;2.88;0.50;;;9.50;87.00;;;;;;5020142;28;20046;-58
2023/03/10 06:04:22;;;;;;;5.30;0.93;;;9.50;86.90;;;;;;5005669;28;20077;-60
2023/03/10 06:06:56;;;;;;;4.38;0.90;;;9.40;86.80;;;;;;5006923;28;20045;-59
2023/03/10 06:09:31;;;;;;;2.92;0.68;;;9.40;86.90;;;;;;5002576;28;20061;-59
2023/03/10 06:12:05;;;;;;;5.22;0.75;;;9.40;86.90;;;;;;5006923;28;20069;-70
2023/03/10 06:14:39;;;;;;;3.42;0.70;;;9.40;86.80;;;;;;5004593;28;20547;-67
2023/03/10 06:17:06;;;;;;;2.38;0.60;;;9.40;86.60;;;;;;5006474;28;20041;-63
2023/03/10 06:19:39;;;;;;;3.58;0.93;;;9.40;86.70;;;;;;5005073;28;20077;-62
2023/03/10 06:22:13;;;;;;;4.63;1.20;;;9.40;86.80;;;;;;5020621;28;20057;-67
2023/03/10 06:24:47;;;;;;;5.93;1.30;;;9.40;86.80;;;;;;5004404;28;20041;-69
2023/03/10 06:27:20;;;;;;;5.30;1.20;;;9.50;86.90;;;;;;5006062;28;20048;-65
2023/03/10 06:29:53;;;;;;;3.50;1.00;;;9.50;87.00;;;;;;5006656;28;20092;-65
2023/03/10 06:32:26;;;;;;;4.55;1.30;;;9.40;87.00;;;;;;5006756;28;20046;-64
2023/03/10 06:35:00;;;;;;;3.10;1.05;;;9.50;87.10;;;;;;5006037;28;20058;-64
2023/03/10 06:37:34;;;;;;;3.63;1.25;;;9.50;87.20;;;;;;5006447;28;20070;-60
2023/03/10 06:40:11;;;;;;;3.42;0.65;;;9.50;87.00;;;;;;5006774;28;20089;-61
2023/03/10 06:42:52;;;;;;;3.35;0.90;;;9.50;87.00;;;;;;5013359;28;20069;-61
2023/03/10 06:45:25;;;;;;;4.40;1.17;;;9.50;87.20;;;;;;5026003;28;20087;-61
2023/03/10 06:47:58;;;;;;;5.32;0.90;;;9.50;87.10;;;;;;5027264;28;20080;-61
2023/03/10 06:50:30;;;;;;;3.67;1.00;;;9.50;87.20;;;;;;5022053;28;20056;-64
2023/03/10 06:53:05;;;;;;;4.13;0.85;;;9.50;87.20;;;;;;5026443;28;20041;-62
2023/03/10 06:55:39;;;;;;;4.05;1.13;;;9.50;87.10;;;;;;5024796;28;20152;-59
2023/03/10 06:58:12;;;;;;;6.38;1.23;;;9.60;87.10;;;;;;5024832;28;20072;-59
2023/03/10 07:00:46;;;;;;;2.65;0.90;;;9.60;87.10;;;;;;5025387;28;20123;-61
2023/03/10 07:03:19;;;;;;;3.30;1.08;;;9.60;87.00;;;;;;5024900;28;20085;-60
2023/03/10 07:05:52;;;;;;;5.65;0.82;;;9.70;86.90;;;;;;5025963;28;20041;-62
2023/03/10 07:08:28;;;;;;;2.72;1.27;;;9.70;87.20;;;;;;5024610;28;20053;-63
2023/03/10 07:11:02;;;;;;;3.25;0.80;;;9.70;87.20;;;;;;5024654;28;20672;-65
2023/03/10 07:13:35;;;;;;;2.83;0.68;;;9.60;87.20;;;;;;5024698;28;20053;-65
2023/03/10 07:16:09;;;;;;;3.42;1.00;;;9.70;87.10;;;;;;5027170;28;20506;-61
2023/03/10 07:18:42;;;;;;;4.07;0.90;;;9.70;87.50;;;;;;5023533;28;20053;-61
2023/03/10 07:21:17;;;;;;;5.90;1.52;;;9.70;87.90;;;;;;5026233;28;20034;-61
2023/03/10 07:23:51;;;;;;;4.60;1.13;;;9.70;88.10;;;;;;5025142;28;20452;-62
2023/03/10 07:26:25;;;;;;;4.10;1.02;;;9.70;88.50;;;;;;5024991;28;20053;-61
2023/03/10 07:28:58;;;;;;;6.57;0.95;;;9.70;88.10;;;;;;5025268;28;20037;-63
2023/03/10 07:31:31;;;;;;;4.13;0.88;;;9.70;88.30;;;;;;5024212;28;20560;-64
2023/03/10 07:34:05;;;;;;;4.93;1.20;;;9.70;88.30;;;;;;5025059;28;20130;-64
2023/03/10 07:36:38;;;;;;;5.82;1.33;;;9.80;88.70;;;;;;5024745;28;20045;-64
2023/03/10 07:39:12;;;;;;;3.60;1.27;;;9.80;88.60;;;;;;5025242;28;20065;-65
2023/03/10 07:41:46;;;;;;;5.50;1.35;;;9.90;88.50;;;;;;5022102;28;20037;-64
2023/03/10 07:44:25;;;;;;;6.93;1.20;;;9.90;88.30;;;;;;4985499;28;20066;-64
2023/03/10 07:46:59;;;;;;;4.35;1.00;;;9.90;88.00;;;;;;4988019;28;20042;-61
2023/03/10 07:49:32;;;;;;;3.17;0.85;;;9.90;88.00;;;;;;4989576;28;20046;-60
2023/03/10 07:52:05;;;;;;;6.30;1.00;;;9.90;88.10;;;;;;4990181;28;20061;-61
2023/03/10 07:54:40;;;;;;;5.15;1.40;;;9.90;88.30;;;;;;4989018;28;20054;-60
2023/03/10 07:57:15;;;;;;;5.40;1.20;;;9.90;88.40;;;;;;4990165;28;20105;-60
2023/03/10 07:59:49;;;;;;;5.80;1.40;;;10.00;88.40;;;;;;4986918;28;20073;-60
2023/03/10 08:02:22;;;;;;;6.00;1.58;;;10.00;88.30;;;;;;4990382;28;20042;-61
2023/03/10 08:04:55;;;;;;;6.35;1.23;;;10.00;88.30;;;;;;4980657;28;20050;-60
2023/03/10 08:07:30;;;;;;;5.72;1.17;;;10.00;88.10;;;;;;4990485;28;20126;-67
2023/03/10 08:10:06;;;;;;;4.47;1.10;;;10.10;88.20;;;;;;4984731;28;20683;-66
2023/03/10 08:12:40;;;;;;;3.40;1.17;;;10.00;88.20;;;;;;4988455;28;20051;-62
2023/03/10 08:15:13;;;;;;;3.05;0.85;;;10.00;88.30;;;;;;4989816;28;20046;-62
2023/03/10 08:17:47;;;;;;;4.40;1.15;;;10.00;88.40;;;;;;4990704;28;20085;-62
2023/03/10 08:20:20;;;;;;;4.80;1.10;;;10.00;88.30;;;;;;4991005;28;20060;-62
2023/03/10 08:22:53;;;;;;;6.15;1.15;;;9.90;88.50;;;;;;4990183;28;20077;-63
2023/03/10 08:25:27;;;;;;;5.18;1.30;;;9.90;88.20;;;;;;4987764;28;20046;-62
2023/03/10 08:28:01;;;;;;;5.05;1.23;;;9.90;88.70;;;;;;4988243;28;20054;-65
2023/03/10 08:30:34;;;;;;;6.93;1.45;;;9.90;88.90;;;;;;4984949;28;20149;-60
2023/03/10 08:33:07;;;;;;;5.50;1.83;;;10.00;88.80;;;;;;4989451;28;20050;-59
2023/03/10 08:35:41;;;;;;;5.90;1.40;;;10.10;88.80;;;;;;4986098;28;20045;-58
2023/03/10 08:38:14;;;;;;;5.40;1.65;;;10.20;88.90;;;;;;4988249;28;20089;-61
2023/03/10 08:40:48;;;;;;;3.42;1.30;;;10.30;88.70;;;;;;4988155;28;20050;-59
2023/03/10 08:43:29;;;;;;;5.03;1.40;;;10.30;88.70;;;;;;5012027;28;20121;-58
2023/03/10 08:46:08;;;;;;;4.75;1.67;;;10.40;88.50;;;;;;5029215;28;20656;-59
2023/03/10 08:48:42;;;;;;;4.55;1.38;;;10.40;88.40;;;;;;5028787;28;20049;-59
2023/03/10 08:51:17;;;;;;;5.60;1.33;;;10.40;88.10;;;;;;5028523;28;20125;-58
2023/03/10 08:53:51;;;;;;;7.13;1.73;;;10.50;87.70;;;;;;5029151;28;20053;-59
2023/03/10 08:56:27;;;;;;;5.47;1.45;;;10.50;87.60;;;;;;5029085;28;20080;-58
2023/03/10 08:59:00;;;;;;;6.18;1.52;;;10.50;87.40;;;;;;5027902;28;20137;-61
2023/03/10 09:01:35;;;;;;;6.55;1.40;;;10.40;87.20;;;;;;5028143;28;20492;-62
2023/03/10 09:04:10;;;;;;;6.43;1.27;;;10.40;87.10;;;;;;5029036;28;20165;-61
2023/03/10 09:06:43;;;;;;;7.00;1.00;;;10.40;87.10;;;;;;5028402;28;20041;-59
2023/03/10 09:09:16;;;;;;;5.53;1.42;;;10.40;87.10;;;;;;5028121;28;20037;-59
2023/03/10 09:11:51;;;;;;;5.03;1.30;;;10.30;86.90;;;;;;5027364;28;20566;-61
2023/03/10 09:14:25;;;;;;;5.00;1.23;;;10.30;87.00;;;;;;5026540;28;20088;-62
2023/03/10 09:16:58;;;;;;;4.53;1.55;;;10.30;87.10;;;;;;5026592;28;20103;-68
2023/03/10 09:19:32;;;;;;;8.63;1.40;;;10.30;87.20;;;;;;5026618;28;20045;-66
2023/03/10 09:22:05;;;;;;;7.35;2.00;;;10.30;87.30;;;;;;5028316;28;20045;-67
2023/03/10 09:24:38;;;;;;;9.48;2.05;;;10.30;87.20;;;;;;5026352;28;20045;-68
2023/03/10 09:27:14;;;;;;;5.30;1.30;;;10.30;86.80;;;;;;5019528;28;20046;-66
2023/03/10 09:29:50;;;;;;;5.47;1.60;;;10.30;86.20;;;;;;5000488;28;20049;-67
2023/03/10 09:32:25;;;;;;;4.63;1.00;;;10.40;86.10;;;;;;5025417;28;20056;-61
2023/03/10 09:34:58;;;;;;;5.00;0.95;;;10.50;85.60;;;;;;5027400;28;20103;-61
2023/03/10 09:37:31;;;;;;;3.67;0.80;;;10.60;85.20;;;;;;5026653;28;20942;-61
2023/03/10 09:40:06;;;;;;;5.80;0.80;;;10.60;84.60;;;;;;5027193;28;20156;-61
2023/03/10 09:42:42;;;;;;;3.28;1.17;;;10.70;84.20;;;;;;5022639;28;20057;-61
2023/03/10 09:45:28;;;;;;;2.83;0.80;;;10.70;83.90;;;;;;5006539;28;20069;-62
2023/03/10 09:48:14;;;;;;;3.00;0.63;;;10.80;83.20;;;;;;5005196;28;20485;-62
2023/03/10 09:50:51;;;;;;;2.90;0.80;;;10.80;82.90;;;;;;5003617;28;20050;-62
2023/03/10 09:54:00;;;;;;;1.75;0.57;;;10.80;81.90;;;;;;5005333;28;20123;-62
2023/03/10 09:56:35;;;;;;;2.65;0.60;;;10.90;81.70;;;;;;5005264;28;20045;-65
2023/03/10 09:59:15;;;;;;;4.25;1.08;;;10.90;81.40;;;;;;5004532;28;20046;-64
2023/03/10 10:01:51;;;;;;;2.97;1.00;;;10.90;81.50;;;;;;5003978;28;20049;-63
2023/03/10 10:04:31;;;;;;;4.15;1.00;;;11.00;81.40;;;;;;5004680;28;20485;-62
2023/03/10 10:07:14;;;;;;;4.45;1.05;;;11.00;80.70;;;;;;5005708;28;20103;-61
2023/03/10 10:09:54;;;;;;;5.35;0.73;;;11.10;80.90;;;;;;5004580;28;20037;-62
2023/03/10 10:12:43;;;;;;;4.32;0.90;;;11.10;80.50;;;;;;5002842;28;20116;-61
2023/03/10 10:15:27;;;;;;;2.85;0.60;;;11.10;80.40;;;;;;5019587;28;20473;-64
2023/03/10 10:18:09;;;;;;;3.25;0.90;;;11.10;79.90;;;;;;5003733;28;20041;-63
2023/03/10 10:20:49;;;;;;;3.80;0.70;;;11.10;80.00;;;;;;5005188;28;20056;-65
2023/03/10 10:23:27;;;;;;;2.20;0.70;;;11.10;79.60;;;;;;5002158;28;20424;-63
2023/03/10 10:26:10;;;;;;;2.35;0.60;;;11.10;79.10;;;;;;5004136;28;20096;-63
2023/03/10 10:28:47;;;;;;;4.20;0.77;;;11.10;79.30;;;;;;5000100;28;20045;-62
2023/03/10 10:31:24;;;;;;;4.40;0.98;;;11.20;78.80;;;;;;4999132;28;20046;-61
2023/03/10 10:34:02;;;;;;;4.47;0.82;;;11.20;79.40;;;;;;5004235;28;20408;-61
2023/03/10 10:36:47;;;;;;;4.63;0.90;;;11.10;79.20;;;;;;5003846;28;20417;-61
2023/03/10 10:39:26;;;;;;;3.75;0.80;;;11.00;79.20;;;;;;5003403;28;20042;-61
2023/03/10 10:42:22;;;;;;;4.22;1.08;;;10.90;80.40;;;;;;5000331;28;20119;-61
2023/03/10 10:45:04;;;;;;;4.82;1.08;;;10.80;81.50;;;;;;4984261;28;20074;-62
2023/03/10 10:47:48;;;;;;;4.57;1.08;;;10.90;81.90;;;;;;4983675;28;20480;-60
2023/03/10 10:50:24;;;;;;;3.58;0.90;;;11.10;82.20;;;;;;4998595;28;20057;-60
2023/03/10 10:53:23;;;;;;;4.93;0.80;;;11.20;82.50;;;;;;4980904;28;20454;-60
2023/03/10 10:56:02;;;;;;;2.80;0.70;;;11.30;82.70;;;;;;4983690;28;20394;-60
2023/03/10 10:58:38;;;;;;;3.67;1.00;;;11.30;82.90;;;;;;4985161;28;20050;-60
2023/03/10 11:01:13;;;;;;;4.95;0.88;;;11.40;82.60;;;;;;4982488;28;20060;-60
2023/03/10 11:03:48;;;;;;;3.92;0.70;;;11.50;82.50;;;;;;4983861;28;20493;-61
2023/03/10 11:06:25;;;;;;;4.72;0.70;;;11.50;82.50;;;;;;4981977;28;20046;-60
2023/03/10 11:09:04;;;;;;;5.45;0.60;;;11.50;82.40;;;;;;4982408;28;20048;-61
2023/03/10 11:11:45;;;;;;;4.38;0.77;;;11.40;82.40;;;;;;4984342;28;20145;-61
2023/03/10 11:14:34;;;;;;;2.47;0.70;;;11.40;82.30;;;;;;4985663;28;20054;-60
2023/03/10 11:17:14;;;;;;;4.97;0.70;;;11.40;82.30;;;;;;4983815;28;20038;-62
2023/03/10 11:19:59;;;;;;;3.40;0.60;;;11.40;81.80;;;;;;4981273;28;20045;-60
2023/03/10 11:22:39;;;;;;;3.33;0.50;;;11.40;81.90;;;;;;4983165;28;20056;-62
2023/03/10 11:25:26;;;;;;;3.47;0.98;;;11.40;81.20;;;;;;4984408;28;20069;-62
2023/03/10 11:28:25;;;;;;;4.43;0.55;;;11.50;81.20;;;;;;4983486;28;20046;-60
2023/03/10 11:31:08;;;;;;;2.90;0.85;;;11.50;81.00;;;;;;4984277;28;20042;-61
2023/03/10 11:33:50;;;;;;;2.45;0.80;;;11.50;80.50;;;;;;4984452;28;20050;-62
2023/03/10 11:36:36;;;;;;;2.00;0.77;;;11.40;80.60;;;;;;4983571;28;20046;-61
2023/03/10 11:39:20;;;;;;;1.88;0.77;;;11.40;80.40;;;;;;4984665;28;20816;-61
2023/03/10 11:42:00;;;;;;;2.95;1.15;;;11.40;79.90;;;;;;4982958;28;20046;-67
2023/03/10 11:44:47;;;;;;;9.20;3.80;;;11.40;79.60;;;;;;5002912;28;20045;-67
2023/03/10 11:47:28;;;;;;;12.50;5.40;;;11.40;79.10;;;;;;5003130;28;20458;-67
2023/03/10 11:50:07;;;;;;;14.15;6.47;;;11.40;79.70;;;;;;5003803;28;20038;-68
2023/03/10 11:52:43;;;;;;;10.05;4.20;;;11.50;79.40;;;;;;5002646;28;20054;-68
2023/03/10 11:55:21;;;;;;;7.93;3.13;;;11.50;79.30;;;;;;5004992;28;20108;-62
2023/03/10 11:58:03;;;;;;;9.30;2.78;;;11.60;79.10;;;;;;5002149;28;20573;-61
2023/03/10 12:00:40;;;;;;;6.63;1.67;;;11.60;79.10;;;;;;5001872;28;20038;-61
2023/03/10 12:03:20;;;;;;;4.20;1.10;;;11.60;79.10;;;;;;5003971;28;20042;-63
2023/03/10 12:05:58;;;;;;;2.92;0.98;;;11.50;79.30;;;;;;5002659;28;20045;-61
2023/03/10 12:08:34;;;;;;;2.72;0.70;;;11.50;79.30;;;;;;4999676;28;20073;-61
2023/03/10 12:11:15;;;;;;;4.00;0.88;;;11.50;79.30;;;;;;5002510;28;20064;-63
2023/03/10 12:13:51;;;;;;;2.13;0.50;;;11.50;79.20;;;;;;5005074;28;20543;-63
2023/03/10 12:16:28;;;;;;;2.40;0.75;;;11.60;79.70;;;;;;5004889;28;20053;-62
2023/03/10 12:19:04;;;;;;;2.55;0.60;;;11.60;79.70;;;;;;5005479;28;20045;-67
2023/03/10 12:21:37;;;;;;;1.55;0.70;;;11.70;79.50;;;;;;5000775;28;20089;-61
2023/03/10 12:24:44;;;;;;;2.33;0.50;;;11.70;79.70;;;;;;5002465;28;20112;-62
2023/03/10 12:27:17;;;;;;;0.93;0.30;;;11.70;79.50;;;;;;5005730;28;20045;-62
2023/03/10 12:29:50;;;;;;;1.60;0.40;;;11.60;79.50;;;;;;5004582;28;20054;-62
2023/03/10 12:32:45;;;;;;;4.75;1.88;;;11.60;79.40;;;;;;5003768;28;20100;-63
2023/03/10 12:35:47;;;;;;;9.00;3.40;;;11.50;79.80;;;;;;5006181;28;20049;-63
2023/03/10 12:38:50;;;;;;;10.05;3.90;;;11.50;79.60;;;;;;5004356;28;20488;-62
2023/03/10 12:41:45;;;;;;;7.20;3.03;;;11.40;79.80;;;;;;5004244;28;20066;-62
2023/03/10 12:44:43;;;;;;;5.55;2.10;;;11.30;80.10;;;;;;5022153;28;20517;-63
2023/03/10 12:47:29;;;;;;;3.60;1.30;;;11.40;80.10;;;;;;5027140;28;20114;-63
2023/03/10 12:50:18;;;;;;;2.20;0.80;;;11.40;79.90;;;;;;5027867;28;20096;-62
2023/03/10 12:52:59;;;;;;;1.55;0.60;;;11.40;80.00;;;;;;5026549;28;20048;-63
2023/03/10 12:55:33;;;;;;;4.07;0.60;;;11.40;80.20;;;;;;5027983;28;20053;-60
2023/03/10 12:58:15;;;;;;;1.58;0.60;;;11.40;80.20;;;;;;5029472;28;20511;-61
2023/03/10 13:00:53;;;;;;;1.80;0.52;;;11.40;80.40;;;;;;5027957;28;20141;-63
2023/03/10 13:03:32;;;;;;;0.82;0.40;;;11.30;80.30;;;;;;5029323;28;20076;-62
2023/03/10 13:06:08;;;;;;;2.13;0.47;;;11.40;80.60;;;;;;5027895;28;20049;-61
2023/03/10 13:08:45;;;;;;;2.03;0.70;;;11.40;80.80;;;;;;5025414;28;20045;-62
2023/03/10 13:11:32;;;;;;;1.35;0.40;;;11.40;80.90;;;;;;5025469;28;20076;-61
2023/03/10 13:14:14;;;;;;;1.17;0.40;;;11.40;80.90;;;;;;5028819;28;20385;-60
2023/03/10 13:16:53;;;;;;;2.25;0.40;;;11.40;81.00;;;;;;5029047;28;20057;-62
2023/03/10 13:19:30;;;;;;;2.47;0.70;;;11.40;81.00;;;;;;5023619;28;20123;-63
2023/03/10 13:22:04;;;;;;;1.58;0.50;;;11.40;81.10;;;;;;5028840;28;20045;-60
2023/03/10 13:24:41;;;;;;;1.73;0.50;;;11.40;80.90;;;;;;5025573;28;20462;-61
2023/03/10 13:27:16;;;;;;;2.20;0.50;;;11.40;80.80;;;;;;5026340;28;20407;-60
2023/03/10 13:29:56;;;;;;;1.50;0.50;;;11.30;80.60;;;;;;5026365;28;20065;-61
2023/03/10 13:32:30;;;;;;;1.85;0.40;;;11.40;80.50;;;;;;5026933;28;20045;-63
2023/03/10 13:35:23;;;;;;;2.17;0.70;;;11.30;80.40;;;;;;5024404;28;20045;-61
2023/03/10 13:38:07;;;;;;;2.85;0.82;;;11.30;80.30;;;;;;5028473;28;20056;-62
2023/03/10 13:40:43;;;;;;;1.65;0.57;;;11.30;80.50;;;;;;5026388;28;20046;-63
2023/03/10 13:43:34;;;;;;;2.42;0.90;;;11.20;80.60;;;;;;5026543;28;20046;-62